Time;durP1;ratioP1;P1;durP2;ratioP2;P2;SDS_P1;SDS_P2;PMS_P1;PMS_P2;Temp;Humidity;BMP_temperature;BMP_pressure;BME280_temperature;BME280_humidity;BME280_pressure;Samples;Min_cycle;Max_cycle;Signal;HPM_P1;HPM_P2
2023/04/20 00:03:38;;;;;;;0.00;0.00;;;;;;;-145.06;65.59;96202.78;10409708;28;20017;-78
2023/04/20 00:08:38;;;;;;;0.00;0.00;;;;;;;-145.06;68.17;96260.09;10411483;28;20104;-77
2023/04/20 00:13:38;;;;;;;0.00;0.00;;;;;;;-145.06;65.57;96237.59;10412860;28;20264;-78
2023/04/20 00:18:39;;;;;;;0.00;0.00;;;;;;;-145.06;63.12;96186.41;10412586;28;20253;-78
2023/04/20 00:23:40;;;;;;;0.00;0.00;;;;;;;-145.06;61.74;96182.31;10412266;28;20017;-78
2023/04/20 00:28:40;;;;;;;0.00;0.00;;;;;;;-145.06;60.03;96094.31;10410039;28;20404;-78
2023/04/20 00:33:41;;;;;;;0.00;0.00;;;;;;;-145.06;59.66;96139.34;10411157;28;20074;-78
2023/04/20 00:38:41;;;;;;;0.00;0.00;;;;;;;-145.06;58.25;96122.97;10392654;28;20029;-78
2023/04/20 00:43:53;;;;;;;0.00;0.00;;;;;;;-145.06;56.20;96088.19;10389967;28;20021;-78
2023/04/20 00:48:55;;;;;;;0.00;0.00;;;;;;;-145.06;54.90;96065.66;10410396;28;20155;-78
2023/04/20 00:53:56;;;;;;;0.00;0.00;;;;;;;-145.06;53.58;96051.34;10411040;28;20013;-78
2023/04/20 00:58:56;;;;;;;0.00;0.00;;;;;;;-145.06;54.33;96143.44;10411838;28;20029;-78
2023/04/20 01:03:57;;;;;;;0.05;0.05;;;;;;;-145.06;54.86;96049.28;10410075;28;20392;-78
2023/04/20 01:08:57;;;;;;;0.00;0.00;;;;;;;-145.06;58.00;96135.25;10406807;28;20614;-78
2023/04/20 01:13:57;;;;;;;0.00;0.00;;;;;;;-145.06;58.98;96165.94;10409622;28;20025;-77
2023/04/20 01:18:58;;;;;;;0.00;0.00;;;;;;;-145.06;61.71;96161.84;10408922;28;20029;-78
2023/04/20 01:23:58;;;;;;;0.00;0.00;;;;;;;-145.06;61.91;96194.59;10407171;28;20488;-78
2023/04/20 01:28:59;;;;;;;0.00;0.00;;;;;;;-145.06;59.57;96151.63;10408735;28;20021;-78
2023/04/20 01:33:59;;;;;;;0.10;0.10;;;;;;;-145.06;60.67;96149.56;10408253;28;20290;-78
2023/04/20 01:38:59;;;;;;;0.10;0.10;;;;;;;-145.06;63.86;96180.28;10391822;28;20287;-78
2023/04/20 01:44:00;;;;;;;0.00;0.00;;;;;;;-145.06;67.45;96249.88;10408339;28;20029;-78
2023/04/20 01:49:00;;;;;;;0.00;0.00;;;;;;;-145.06;74.06;96264.19;10405661;28;20032;-78
2023/04/20 01:54:01;;;;;;;0.00;0.00;;;;;;;-145.06;71.47;96288.75;10406800;28;20442;-77
2023/04/20 01:59:01;;;;;;;0.00;0.00;;;;;;;-145.06;68.36;96251.91;10389986;28;20095;-77
2023/04/20 02:04:01;;;;;;;0.00;0.00;;;;;;;-145.06;67.34;96227.34;10404556;28;20129;-78
2023/04/20 02:09:02;;;;;;;0.00;0.00;;;;;;;-145.06;69.46;96284.66;10408811;28;20037;-77
2023/04/20 02:14:02;;;;;;;0.00;0.00;;;;;;;-145.06;71.80;96292.84;10409996;28;20044;-78
2023/04/20 02:19:02;;;;;;;0.00;0.00;;;;;;;-145.06;70.44;96292.84;10403253;28;20025;-78
2023/04/20 02:24:03;;;;;;;0.00;0.00;;;;;;;-145.06;91.43;96432.03;10392717;28;20264;-78
2023/04/20 02:29:03;;;;;;;0.00;0.00;;;;;;;-145.06;100.00;96520.03;10414837;28;20017;-78
2023/04/20 02:34:05;;;;;;;0.00;0.00;;;;;;;-145.06;100.00;96548.69;10413707;28;20032;-77
2023/04/20 02:39:05;;;;;;;0.00;0.00;;;;;;;-145.06;100.00;96777.94;10415040;28;20053;-77
2023/04/20 02:44:06;;;;;;;0.00;0.00;;;;;;;-145.06;100.00;96859.81;10413545;28;20068;-77
2023/04/20 02:49:06;;;;;;;0.00;0.00;;;;;;;-145.06;100.00;96784.09;10414832;28;20026;-77
2023/04/20 02:54:07;;;;;;;0.00;0.00;;;;;;;-145.06;100.00;96822.97;10415445;28;20419;-77
2023/04/20 02:59:07;;;;;;;0.00;0.00;;;;;;;-145.06;100.00;96911.00;10409337;28;20025;-77
2023/04/20 03:04:07;;;;;;;0.00;0.00;;;;;;;-145.06;100.00;96890.53;10413256;28;20435;-77
2023/04/20 03:09:08;;;;;;;0.00;0.00;;;;;;;-145.06;100.00;96792.28;10413522;28;20033;-77
2023/04/20 03:14:08;;;;;;;0.00;0.00;;;;;;;-145.06;100.00;96878.25;10411758;28;20451;-77
2023/04/20 03:19:08;;;;;;;0.00;0.00;;;;;;;-145.06;100.00;96882.34;10413726;28;20432;-77
2023/04/20 03:24:09;;;;;;;0.00;0.00;;;;;;;-145.06;100.00;96939.66;10411156;28;20433;-77
2023/04/20 03:29:09;;;;;;;0.00;0.00;;;;;;;-145.06;100.00;96900.75;10391182;28;20071;-77
2023/04/20 03:34:13;;;;;;;0.00;0.00;;;;;;;-145.06;100.00;96857.78;10412929;28;20028;-77
2023/04/20 03:39:14;;;;;;;0.00;0.00;;;;;;;-145.06;100.00;96999.03;10411684;28;20032;-77
2023/04/20 03:44:15;;;;;;;0.00;0.00;;;;;;;-145.06;100.00;97062.47;10415167;28;20287;-77
2023/04/20 03:49:15;;;;;;;0.00;0.00;;;;;;;-145.06;100.00;96904.84;10412335;28;20025;-77
2023/04/20 03:54:16;;;;;;;0.00;0.00;;;;;;;-145.06;100.00;97033.81;10410971;28;20100;-76
2023/04/20 03:59:16;;;;;;;0.00;0.00;;;;;;;-145.06;100.00;97005.16;10408349;28;20067;-77
2023/04/20 04:04:16;;;;;;;0.00;0.00;;;;;;;-145.06;100.00;97017.44;10388910;28;20108;-76
2023/04/20 04:09:17;;;;;;;0.00;0.00;;;;;;;-145.06;100.00;97060.44;10410987;28;20433;-76
2023/04/20 04:14:17;;;;;;;0.00;0.00;;;;;;;-145.06;100.00;97056.34;10410119;28;20381;-76
2023/04/20 04:19:17;;;;;;;0.00;0.00;;;;;;;-145.06;100.00;97191.44;10409998;28;20034;-76
2023/04/20 04:24:18;;;;;;;0.00;0.00;;;;;;;-145.06;100.00;97152.56;10410730;28;20032;-76
2023/04/20 04:29:18;;;;;;;0.00;0.00;;;;;;;-145.06;100.00;97113.66;10409948;28;20499;-76
2023/04/20 04:34:23;;;;;;;0.00;0.00;;;;;;;-145.06;100.00;97097.28;10407333;28;20013;-76
2023/04/20 04:39:23;;;;;;;0.00;0.00;;;;;;;-145.06;100.00;97199.63;10408493;28;20029;-76
2023/04/20 04:44:24;;;;;;;0.00;0.00;;;;;;;-145.06;100.00;97189.41;10453576;22;20123;-92
2023/04/20 04:49:25;;;;;;;0.00;0.00;;;;;;;-145.06;100.00;97195.53;10448424;23;20135;-78
2023/04/20 04:54:25;;;;;;;0.00;0.00;;;;;;;-145.06;100.00;97242.63;10459290;28;20029;-78
2023/04/20 04:59:25;;;;;;;0.00;0.00;;;;;;;-145.06;100.00;97234.44;10431610;28;20044;-78
2023/04/20 05:04:26;;;;;;;0.00;0.00;;;;;;;-145.06;100.00;97173.03;10432565;28;20432;-77
2023/04/20 05:09:32;;;;;;;0.00;0.00;;;;;;;-145.06;100.00;97156.66;10425893;28;20043;-77
2023/04/20 05:14:32;;;;;;;0.00;0.00;;;;;;;-145.06;100.00;97105.47;10429132;28;20024;-78
2023/04/20 05:19:33;;;;;;;0.00;0.00;;;;;;;-145.06;100.00;97070.66;10408896;28;20454;-78
2023/04/20 05:24:33;;;;;;;0.00;0.00;;;;;;;-145.06;100.00;97058.38;10430020;28;20054;-78
2023/04/20 05:29:34;;;;;;;0.00;0.00;;;;;;;-145.06;100.00;97064.53;10417408;28;20275;-78
2023/04/20 05:34:34;;;;;;;0.00;0.00;;;;;;;-145.06;100.00;96640.81;10432197;28;20020;-77
2023/04/20 05:39:34;;;;;;;0.00;0.00;;;;;;;-145.06;100.00;97064.53;10407509;28;20089;-76
2023/04/20 05:44:35;;;;;;;0.00;0.00;;;;;;;-145.06;100.00;97062.47;10423648;28;20079;-78
2023/04/20 05:49:35;;;;;;;0.00;0.00;;;;;;;-145.06;100.00;97074.75;10429596;28;20016;-76
2023/04/20 05:54:36;;;;;;;0.00;0.00;;;;;;;-145.06;100.00;97052.25;10430776;28;20079;-77
2023/04/20 05:59:36;;;;;;;0.00;0.00;;;;;;;-145.06;100.00;97048.16;10424665;28;20294;-77
2023/04/20 06:04:37;;;;;;;0.00;0.00;;;;;;;-145.06;100.00;97072.72;10432607;28;20519;-78
2023/04/20 06:09:37;;;;;;;0.00;0.00;;;;;;;-145.06;100.00;97062.47;10425044;28;20033;-78
2023/04/20 06:14:37;;;;;;;0.00;0.00;;;;;;;-145.06;100.00;97132.09;10425075;28;20026;-77
2023/04/20 06:19:37;;;;;;;0.00;0.00;;;;;;;-145.06;100.00;97087.03;10431559;28;20080;-76
2023/04/20 06:24:41;;;;;;;0.00;0.00;;;;;;;-145.06;100.00;97085.00;10421307;28;20029;-77
2023/04/20 06:29:41;;;;;;;0.00;0.00;;;;;;;-145.06;100.00;97119.81;10435701;28;20544;-75
2023/04/20 06:34:42;;;;;;;0.00;0.00;;;;;;;-145.06;100.00;102337.22;10423838;28;20035;-76
2023/04/20 06:39:42;;;;;;;0.00;0.00;;;;;;;-145.06;100.00;97562.00;10411146;28;20029;-76
2023/04/20 06:44:42;;;;;;;0.00;0.00;;;;;;;-145.06;100.00;97334.75;10413997;28;20410;-78
2023/04/20 06:49:43;;;;;;;0.00;0.00;;;;;;;-145.06;100.00;97285.63;10420570;28;20260;-78
2023/04/20 06:54:43;;;;;;;0.00;0.00;;;;;;;-145.06;100.00;97277.44;10426957;28;20430;-80
2023/04/20 06:59:43;;;;;;;0.00;0.00;;;;;;;-145.06;100.00;96217.13;10425167;28;20026;-80
2023/04/20 07:04:43;;;;;;;0.00;0.00;;;;;;;-145.06;100.00;96118.88;10424387;28;20107;-79
2023/04/20 07:09:44;;;;;;;0.00;0.00;;;;;;;-145.06;100.00;97230.34;10419398;28;20403;-78
2023/04/20 07:14:44;;;;;;;0.00;0.00;;;;;;;-145.06;100.00;97211.94;10402886;28;20017;-79
2023/04/20 07:19:44;;;;;;;0.00;0.00;;;;;;;-145.06;100.00;96186.41;10421857;28;20022;-78
2023/04/20 07:24:45;;;;;;;0.00;0.00;;;;;;;-145.06;100.00;96440.22;10435638;28;20272;-77
2023/04/20 07:29:45;;;;;;;0.00;0.00;;;;;;;-145.06;100.00;96168.00;10435497;28;20383;-77
2023/04/20 07:34:45;;;;;;;0.00;0.00;;;;;;;-145.06;100.00;96253.94;10434250;28;20028;-77
2023/04/20 07:39:46;;;;;;;0.00;0.00;;;;;;;-145.06;100.00;96626.47;10428681;28;20307;-77
2023/04/20 07:44:47;;;;;;;0.00;0.00;;;;;;;-145.06;100.00;96603.94;10422827;28;20013;-77
2023/04/20 07:49:47;;;;;;;0.00;0.00;;;;;;;-145.06;100.00;96247.81;10401868;28;20081;-79
2023/04/20 07:54:47;;;;;;;0.00;0.00;;;;;;;-145.06;100.00;96825.03;10426056;28;20476;-79
2023/04/20 07:59:47;;;;;;;0.00;0.00;;;;;;;-145.06;100.00;97089.09;10409961;28;20503;-78
2023/04/20 08:04:48;;;;;;;0.00;0.00;;;;;;;-145.06;100.00;97375.69;10424538;28;20272;-78
2023/04/20 08:09:48;;;;;;;0.00;0.00;;;;;;;-145.06;100.00;97359.31;10406542;28;20017;-77
2023/04/20 08:14:49;;;;;;;0.00;0.00;;;;;;;-145.06;100.00;96820.94;10425383;28;20044;-78
2023/04/20 08:19:49;;;;;;;0.00;0.00;;;;;;;-145.06;100.00;97166.88;10409377;28;20087;-78
2023/04/20 08:24:50;;;;;;;0.00;0.00;;;;;;;-145.06;100.00;96845.50;10429035;28;20331;-78
2023/04/20 08:29:50;;;;;;;0.00;0.00;;;;;;;-145.06;100.00;96943.75;10420504;28;20013;-78
2023/04/20 08:34:52;;;;;;;0.00;0.00;;;;;;;-145.06;100.00;96563.00;10442891;28;20028;-78
2023/04/20 08:39:53;;;;;;;0.00;0.00;;;;;;;-145.06;100.00;97345.00;10409748;28;20111;-78
2023/04/20 08:44:53;;;;;;;0.00;0.00;;;;;;;-145.06;100.00;97410.50;10443571;28;20486;-78
2023/04/20 08:49:54;;;;;;;0.00;0.00;;;;;;;-145.06;100.00;97521.06;10422750;28;20032;-78
2023/04/20 08:54:54;;;;;;;0.00;0.00;;;;;;;-145.06;100.00;97187.34;10430833;28;20017;-77
2023/04/20 08:59:56;;;;;;;0.00;0.00;;;;;;;-145.06;100.00;96581.44;10438044;28;20037;-78
2023/04/20 09:05:00;;;;;;;0.00;0.00;;;;;;;-145.06;100.00;96176.19;10429223;28;20391;-78
2023/04/20 09:10:01;;;;;;;0.00;0.00;;;;;;;-145.06;100.00;96020.63;10427660;28;20013;-78
2023/04/20 09:15:01;;;;;;;0.00;0.00;;;;;;;-145.06;100.00;95940.81;10439293;28;20029;-78
2023/04/20 09:20:03;;;;;;;0.00;0.00;;;;;;;-145.06;100.00;95985.84;10421222;28;20753;-78
2023/04/20 09:25:17;;;;;;;0.00;0.00;;;;;;;-145.06;100.00;95998.13;10409354;28;20279;-77
2023/04/20 09:30:18;;;;;;;0.00;0.00;;;;;;;-145.06;100.00;95826.22;10433569;28;21162;-77
2023/04/20 09:35:22;;;;;;;0.00;0.00;;;;;;;-145.06;100.00;95535.63;10403217;28;20509;-78
2023/04/20 09:40:25;;;;;;;0.00;0.00;;;;;;;-145.06;100.00;95633.84;10411809;28;20757;-77
2023/04/20 09:45:26;;;;;;;0.00;0.00;;;;;;;-145.06;100.00;95676.81;10406857;28;20485;-78
2023/04/20 09:50:26;;;;;;;0.00;0.00;;;;;;;-145.06;100.00;95797.56;10440865;28;20017;-78
2023/04/20 09:55:30;;;;;;;0.00;0.00;;;;;;;-145.06;100.00;95920.34;10428548;28;20464;-77
2023/04/20 10:00:30;;;;;;;0.00;0.00;;;;;;;-145.06;100.00;95899.88;10415545;28;20078;-77
2023/04/20 10:05:32;;;;;;;0.00;0.00;;;;;;;-145.06;100.00;95926.50;10427758;28;20058;-79
2023/04/20 10:10:47;;;;;;;0.00;0.00;;;;;;;-145.06;100.00;95953.09;10437528;28;20026;-79
2023/04/20 10:15:47;;;;;;;0.00;0.00;;;;;;;-145.06;100.00;95552.00;10422091;28;20464;-78
2023/04/20 10:20:48;;;;;;;0.00;0.00;;;;;;;-145.06;100.00;95208.22;10428330;28;20033;-79
2023/04/20 10:25:57;;;;;;;0.00;0.00;;;;;;;-145.06;100.00;95314.63;10451700;28;20039;-78
2023/04/20 10:30:57;;;;;;;0.00;0.00;;;;;;;-145.06;100.00;95200.03;10393972;28;20035;-78
2023/04/20 10:35:58;;;;;;;0.10;0.10;;;;;;;-145.06;100.00;95498.78;10420235;28;20029;-78
2023/04/20 10:41:09;;;;;;;0.00;0.00;;;;;;;-145.06;100.00;95509.03;10424549;28;20020;-79
2023/04/20 10:46:18;;;;;;;0.00;0.00;;;;;;;-145.06;100.00;95609.28;10445175;28;20021;-78
2023/04/20 10:51:19;;;;;;;0.00;0.00;;;;;;;-145.06;100.00;95642.03;10423683;28;20481;-80
2023/04/20 10:56:20;;;;;;;0.00;0.00;;;;;;;-145.06;100.00;95547.91;10428292;28;20024;-79
2023/04/20 11:01:20;;;;;;;0.08;0.08;;;;;;;-145.06;100.00;95519.25;10418756;28;20027;-78
2023/04/20 11:06:21;;;;;;;0.00;0.00;;;;;;;-145.06;100.00;95310.53;10442482;28;20582;-78
2023/04/20 11:11:24;;;;;;;0.00;0.00;;;;;;;-145.06;100.00;95296.22;10422597;28;20136;-79
2023/04/20 11:16:24;;;;;;;0.00;0.00;;;;;;;-145.06;100.00;95490.59;10443983;28;20036;-79
2023/04/20 11:21:39;;;;;;;0.00;0.00;;;;;;;-145.06;100.00;95680.91;10428948;28;20017;-79
2023/04/20 11:26:39;;;;;;;0.10;0.10;;;;;;;-145.06;100.00;95664.53;10449746;28;20404;-79
2023/04/20 11:31:40;;;;;;;0.00;0.00;;;;;;;-145.06;100.00;95711.63;10441261;28;20021;-79
2023/04/20 11:36:40;;;;;;;0.00;0.00;;;;;;;-145.06;100.00;95654.31;10453777;28;20017;-79
2023/04/20 11:41:41;;;;;;;0.10;0.10;;;;;;;-145.06;100.00;95613.38;10447709;28;20271;-78
2023/04/20 11:46:42;;;;;;;0.00;0.00;;;;;;;-145.06;100.00;95682.97;10435174;28;20060;-79
2023/04/20 11:51:43;;;;;;;0.00;0.00;;;;;;;-145.06;100.00;95556.09;10449073;28;20060;-79
2023/04/20 11:56:44;;;;;;;0.00;0.00;;;;;;;-145.06;100.00;95623.63;10459514;28;20102;-78
2023/04/20 12:01:46;;;;;;;0.08;0.08;;;;;;;-145.06;100.00;95566.31;10427306;28;20033;-78
2023/04/20 12:06:47;;;;;;;0.00;0.00;;;;;;;-145.06;100.00;95597.00;10446383;28;20055;-78
2023/04/20 12:11:47;;;;;;;0.00;0.00;;;;;;;-145.06;100.00;95680.91;10457668;28;20040;-79
2023/04/20 12:16:47;;;;;;;0.00;0.00;;;;;;;-145.06;100.00;95736.16;10438064;28;20017;-78
2023/04/20 12:21:48;;;;;;;0.10;0.10;;;;;;;-145.06;100.00;95818.03;10422597;28;20025;-78
2023/04/20 12:26:48;;;;;;;0.10;0.10;;;;;;;-145.06;100.00;95891.69;10434771;28;20025;-78
2023/04/20 12:31:48;;;;;;;0.10;0.10;;;;;;;-145.06;100.00;96075.91;10425806;28;20491;-78
2023/04/20 12:36:49;;;;;;;0.00;0.00;;;;;;;-145.06;100.00;96137.28;10425938;28;20016;-77
2023/04/20 12:41:49;;;;;;;0.00;0.00;;;;;;;-145.06;100.00;96432.03;10454102;28;20084;-78
2023/04/20 12:46:49;;;;;;;0.00;0.00;;;;;;;-145.06;100.00;96317.41;10422596;28;20256;-78
2023/04/20 12:51:50;;;;;;;0.00;0.00;;;;;;;-145.06;100.00;96902.81;10437085;28;20093;-78
2023/04/20 12:56:50;;;;;;;0.00;0.00;;;;;;;-145.06;100.00;96739.06;10430048;28;20024;-77
2023/04/20 13:01:50;;;;;;;0.10;0.10;;;;;;;-145.06;100.00;95946.97;10448187;28;20086;-77
2023/04/20 13:06:51;;;;;;;0.10;0.10;;;;;;;-145.06;100.00;95793.47;10413453;28;20271;-77
2023/04/20 13:11:51;;;;;;;0.10;0.10;;;;;;;-145.06;100.00;95775.06;10411509;28;20024;-77
2023/04/20 13:16:52;;;;;;;0.00;0.00;;;;;;;-145.06;100.00;95621.56;10432607;28;20025;-76
2023/04/20 13:21:52;;;;;;;0.00;0.00;;;;;;;-145.06;100.00;95480.38;10411557;28;20021;-77
2023/04/20 13:26:57;;;;;;;0.00;0.00;;;;;;;-145.06;100.00;95525.38;10437108;28;20029;-78
2023/04/20 13:31:57;;;;;;;0.00;0.00;;;;;;;-145.06;100.00;95490.59;10435752;28;20044;-78
2023/04/20 13:36:58;;;;;;;0.00;0.00;;;;;;;-145.06;100.00;95515.16;10424027;28;20057;-77
2023/04/20 13:41:58;;;;;;;0.00;0.00;;;;;;;-145.06;100.00;95445.59;10429471;28;20021;-78
2023/04/20 13:46:58;;;;;;;0.00;0.00;;;;;;;-145.06;100.00;95410.81;10436820;28;20048;-77
2023/04/20 13:51:59;;;;;;;0.00;0.00;;;;;;;-145.06;100.00;95249.16;10418749;28;20030;-77
2023/04/20 13:57:00;;;;;;;0.10;0.10;;;;;;;-145.06;100.00;95306.44;10421503;28;20032;-77
2023/04/20 14:02:00;;;;;;;0.00;0.00;;;;;;;-145.06;100.00;95498.78;10431656;28;20785;-77
2023/04/20 14:07:01;;;;;;;0.10;0.10;;;;;;;-145.06;100.00;95597.00;10412691;28;20033;-77
2023/04/20 14:12:02;;;;;;;0.10;0.10;;;;;;;-145.06;100.00;95599.06;10430067;28;20032;-77
2023/04/20 14:17:02;;;;;;;0.10;0.10;;;;;;;-145.06;100.00;95640.00;10421234;28;20018;-77
2023/04/20 14:22:02;;;;;;;0.00;0.00;;;;;;;-145.06;100.00;95633.84;10448416;28;20021;-77
2023/04/20 14:27:03;;;;;;;0.00;0.00;;;;;;;-145.06;100.00;95601.09;10443736;28;20021;-77
2023/04/20 14:32:03;;;;;;;0.07;0.07;;;;;;;-145.06;100.00;95615.44;10465905;28;20097;-78
2023/04/20 14:37:04;;;;;;;0.00;0.00;;;;;;;-145.06;100.00;95644.09;10445225;28;20327;-78
2023/04/20 14:42:04;;;;;;;0.03;0.03;;;;;;;-145.06;100.00;95654.31;10452827;28;20511;-78
2023/04/20 14:47:05;;;;;;;0.00;0.00;;;;;;;-145.06;100.00;95615.44;10445725;28;20029;-78
2023/04/20 14:52:05;;;;;;;0.10;0.10;;;;;;;-145.06;100.00;95627.72;10448117;28;20027;-78
2023/04/20 14:57:06;;;;;;;0.03;0.03;;;;;;;-145.06;100.00;95644.09;10453027;28;20035;-78
2023/04/20 15:02:06;;;;;;;0.00;0.00;;;;;;;-145.06;100.00;95599.06;10457463;28;20021;-79
2023/04/20 15:07:07;;;;;;;0.10;0.10;;;;;;;-145.06;100.00;95439.44;10462182;28;20279;-78
2023/04/20 15:12:07;;;;;;;0.00;0.00;;;;;;;-145.06;100.00;95597.00;10442272;28;20074;-78
2023/04/20 15:17:07;;;;;;;0.00;0.00;;;;;;;-145.06;100.00;95527.44;10437330;28;20035;-77
2023/04/20 15:22:08;;;;;;;0.03;0.03;;;;;;;-145.06;100.00;95539.72;10457687;28;20110;-78
2023/04/20 15:27:08;;;;;;;0.00;0.00;;;;;;;-145.06;100.00;95570.41;10449140;28;20755;-78
2023/04/20 15:32:09;;;;;;;0.10;0.10;;;;;;;-145.06;100.00;95486.50;10442769;28;20021;-77
2023/04/20 15:37:09;;;;;;;0.10;0.10;;;;;;;-145.06;100.00;95529.47;10458428;28;20373;-80
2023/04/20 15:42:10;;;;;;;0.10;0.10;;;;;;;-145.06;100.00;95576.56;10448057;28;20032;-80
2023/04/20 15:47:10;;;;;;;0.00;0.00;;;;;;;-145.06;100.00;95588.84;10426528;28;20017;-80
2023/04/20 15:52:10;;;;;;;0.10;0.10;;;;;;;-145.06;100.00;95760.72;10448632;28;20403;-80
2023/04/20 15:57:11;;;;;;;0.10;0.10;;;;;;;-145.06;100.00;95824.16;10445395;28;20024;-79
2023/04/20 16:02:11;;;;;;;0.00;0.00;;;;;;;-145.06;100.00;95672.72;10432425;28;20104;-79
2023/04/20 16:07:12;;;;;;;0.10;0.10;;;;;;;-145.06;100.00;95652.28;10462401;28;20278;-80
2023/04/20 16:12:13;;;;;;;0.10;0.10;;;;;;;-145.06;100.00;95646.13;10469904;28;20296;-79
2023/04/20 16:17:14;;;;;;;0.10;0.10;;;;;;;-145.06;100.00;95613.38;10446836;28;20478;-79
2023/04/20 16:22:14;;;;;;;0.00;0.00;;;;;;;-145.06;100.00;95498.78;10463940;28;20052;-79
2023/04/20 16:27:15;;;;;;;0.10;0.10;;;;;;;-145.06;100.00;95580.66;10432769;28;20018;-80
2023/04/20 16:32:15;;;;;;;0.10;0.10;;;;;;;-145.06;100.00;95576.56;10465826;28;20017;-79
2023/04/20 16:37:15;;;;;;;0.00;0.00;;;;;;;-145.06;100.00;95519.25;10435656;28;20283;-79
2023/04/20 16:42:16;;;;;;;0.00;0.00;;;;;;;-145.06;100.00;95640.00;10447678;28;20044;-79
2023/04/20 16:47:16;;;;;;;0.03;0.03;;;;;;;-145.06;100.00;96022.69;10441651;28;20021;-79
2023/04/20 16:52:16;;;;;;;0.10;0.10;;;;;;;-145.06;100.00;96337.88;10433733;28;20049;-78
2023/04/20 16:57:17;;;;;;;0.10;0.10;;;;;;;-145.06;100.00;96440.22;10465171;28;20295;-80
2023/04/20 17:02:17;;;;;;;0.10;0.10;;;;;;;-145.06;100.00;96260.09;10459360;28;20352;-78
2023/04/20 17:07:18;;;;;;;0.10;0.10;;;;;;;-145.06;100.00;96423.84;10424471;28;20047;-79
2023/04/20 17:12:18;;;;;;;0.10;0.10;;;;;;;-145.06;100.00;96538.47;10448635;28;20013;-80
2023/04/20 17:17:18;;;;;;;0.00;0.00;;;;;;;-145.06;100.00;96606.00;10465203;28;20437;-79
2023/04/20 17:22:19;;;;;;;0.00;0.00;;;;;;;-145.06;100.00;96706.28;10455673;28;20021;-79
2023/04/20 17:27:20;;;;;;;0.10;0.10;;;;;;;-145.06;100.00;96726.78;10452981;28;20028;-78
2023/04/20 17:32:21;;;;;;;0.10;0.10;;;;;;;-145.06;100.00;96790.22;10448071;28;20036;-78
2023/04/20 17:37:22;;;;;;;0.10;0.10;;;;;;;-145.06;100.00;96827.06;10451337;28;20464;-77
2023/04/20 17:42:22;;;;;;;0.10;0.10;;;;;;;-145.06;100.00;96833.22;10447507;28;20021;-78
2023/04/20 17:47:23;;;;;;;0.00;0.00;;;;;;;-145.06;100.00;96777.94;10435413;28;20088;-80
2023/04/20 17:52:23;;;;;;;0.10;0.10;;;;;;;-145.06;100.00;96868.00;10417953;28;20286;-79
2023/04/20 17:57:25;;;;;;;0.10;0.10;;;;;;;-145.06;100.00;96970.38;10431660;28;20021;-78
2023/04/20 18:02:25;;;;;;;0.00;0.00;;;;;;;-145.06;100.00;96888.47;10439784;28;20041;-78
2023/04/20 18:07:26;;;;;;;0.10;0.10;;;;;;;-145.06;100.00;96906.91;10432037;28;20032;-78
2023/04/20 18:12:27;;;;;;;0.10;0.10;;;;;;;-145.06;100.00;96837.31;10431226;28;20013;-79
2023/04/20 18:17:27;;;;;;;0.03;0.03;;;;;;;-145.06;100.00;96925.31;10438968;28;20036;-79
2023/04/20 18:22:27;;;;;;;0.00;0.00;;;;;;;-145.06;100.00;96839.34;10450588;28;20436;-79
2023/04/20 18:27:28;;;;;;;0.10;0.10;;;;;;;-145.06;100.00;96984.69;10464604;28;20437;-79
2023/04/20 18:32:29;;;;;;;0.00;0.00;;;;;;;-145.06;100.00;96927.38;10452174;28;20471;-78
2023/04/20 18:37:30;;;;;;;0.00;0.00;;;;;;;-145.06;100.00;96929.41;10460593;28;20021;-78
2023/04/20 18:42:30;;;;;;;0.10;0.10;;;;;;;-145.06;100.00;96927.38;10439606;28;20021;-79
2023/04/20 18:47:30;;;;;;;0.00;0.00;;;;;;;-145.06;100.00;96980.59;10439836;28;20264;-78
2023/04/20 18:52:32;;;;;;;0.10;0.10;;;;;;;-145.06;100.00;96949.88;10463341;28;20044;-78
2023/04/20 18:57:32;;;;;;;0.10;0.10;;;;;;;-145.06;100.00;96956.03;10435680;28;20088;-78
2023/04/20 19:02:33;;;;;;;0.00;0.00;;;;;;;-145.06;100.00;96976.50;10467311;28;20024;-77
2023/04/20 19:07:34;;;;;;;0.00;0.00;;;;;;;-145.06;100.00;96976.50;10465766;28;20343;-78
2023/04/20 19:12:36;;;;;;;0.00;0.00;;;;;;;-145.06;100.00;96913.03;10431475;28;20025;-79
2023/04/20 19:17:37;;;;;;;0.00;0.00;;;;;;;-145.06;100.00;96954.00;10454900;28;20103;-78
2023/04/20 19:22:37;;;;;;;0.00;0.00;;;;;;;-145.06;100.00;96933.50;10442170;28;20458;-79
2023/04/20 19:27:37;;;;;;;0.10;0.10;;;;;;;-145.06;100.00;96935.56;10447604;28;20029;-79
2023/04/20 19:32:38;;;;;;;0.00;0.00;;;;;;;-145.06;100.00;96939.66;10432246;28;20013;-78
2023/04/20 19:37:40;;;;;;;0.10;0.10;;;;;;;-145.06;100.00;96939.66;10456183;28;20034;-78
2023/04/20 19:42:41;;;;;;;0.00;0.00;;;;;;;-145.06;100.00;96980.59;10441191;28;20022;-79
2023/04/20 19:47:41;;;;;;;0.00;0.00;;;;;;;-145.06;100.00;96945.81;10441728;28;20089;-79
2023/04/20 19:52:42;;;;;;;0.00;0.00;;;;;;;-145.06;100.00;96882.34;10467738;28;20017;-79
2023/04/20 19:57:42;;;;;;;0.00;0.00;;;;;;;-145.06;100.00;96978.56;10463214;28;20037;-79
2023/04/20 20:02:49;;;;;;;0.00;0.00;;;;;;;-145.06;100.00;96947.84;10462729;28;20088;-79
2023/04/20 20:07:50;;;;;;;0.00;0.00;;;;;;;-145.06;100.00;96992.88;10451467;28;20029;-80
2023/04/20 20:12:51;;;;;;;0.10;0.10;;;;;;;-145.06;100.00;96919.19;10438793;28;20013;-78
2023/04/20 20:17:54;;;;;;;0.00;0.00;;;;;;;-145.06;100.00;96972.41;10441255;28;20017;-78
2023/04/20 20:22:55;;;;;;;0.00;0.00;;;;;;;-145.06;100.00;96941.69;10453089;28;20035;-78
2023/04/20 20:27:55;;;;;;;0.00;0.00;;;;;;;-145.06;100.00;96968.31;10441089;28;20168;-79
2023/04/20 20:32:57;;;;;;;0.00;0.00;;;;;;;-145.06;100.00;96941.69;10417664;28;20082;-79
2023/04/20 20:37:58;;;;;;;0.00;0.00;;;;;;;-145.06;100.00;96931.47;10433895;28;20036;-79
2023/04/20 20:42:59;;;;;;;0.00;0.00;;;;;;;-145.06;100.00;97003.13;10447236;28;20047;-79
2023/04/20 20:48:00;;;;;;;0.00;0.00;;;;;;;-145.06;100.00;96943.75;10445445;28;20255;-77
2023/04/20 20:53:00;;;;;;;0.00;0.00;;;;;;;-145.06;100.00;96958.06;10455175;28;20044;-77
2023/04/20 20:58:00;;;;;;;0.10;0.10;;;;;;;-145.06;100.00;96929.41;10463339;28;20063;-79
2023/04/20 21:03:01;;;;;;;0.00;0.00;;;;;;;-145.06;100.00;96958.06;10430099;28;20021;-79
2023/04/20 21:08:01;;;;;;;0.00;0.00;;;;;;;-145.06;100.00;96966.28;10441612;28;20035;-78
2023/04/20 21:13:02;;;;;;;0.00;0.00;;;;;;;-145.06;100.00;96980.59;10465872;28;20070;-78
2023/04/20 21:18:03;;;;;;;0.00;0.00;;;;;;;-145.06;100.00;96933.50;10454611;28;20271;-78
2023/04/20 21:23:03;;;;;;;0.00;0.00;;;;;;;-145.06;100.00;96956.03;10430154;28;20502;-77
2023/04/20 21:28:03;;;;;;;0.00;0.00;;;;;;;-145.06;100.00;96966.28;10445307;28;20100;-78
2023/04/20 21:33:04;;;;;;;0.00;0.00;;;;;;;-145.06;100.00;96861.88;10412123;28;20021;-78
2023/04/20 21:38:04;;;;;;;0.00;0.00;;;;;;;-145.06;100.00;96984.69;10423744;28;20029;-78
2023/04/20 21:43:06;;;;;;;0.00;0.00;;;;;;;-145.06;100.00;97017.44;10425721;28;20472;-78
2023/04/20 21:48:06;;;;;;;0.10;0.10;;;;;;;-145.06;100.00;96937.59;10438827;28;20047;-78
2023/04/20 21:53:06;;;;;;;0.00;0.00;;;;;;;-145.06;100.00;97001.06;10445991;28;20029;-78
2023/04/20 21:58:06;;;;;;;0.00;0.00;;;;;;;-145.06;100.00;97029.72;10449310;28;20118;-78
2023/04/20 22:03:07;;;;;;;0.00;0.00;;;;;;;-145.06;100.00;97017.44;10412345;28;20661;-80
2023/04/20 22:08:07;;;;;;;0.00;0.00;;;;;;;-145.06;100.00;96968.31;10445636;28;20035;-78
2023/04/20 22:13:07;;;;;;;0.00;0.00;;;;;;;-145.06;100.00;96992.88;10454607;28;20468;-79
2023/04/20 22:18:11;;;;;;;0.00;0.00;;;;;;;-145.06;100.00;96886.44;10420327;28;20256;-79
2023/04/20 22:23:12;;;;;;;0.00;0.00;;;;;;;-145.06;100.00;96890.53;10422732;28;20021;-79
2023/04/20 22:28:12;;;;;;;0.00;0.00;;;;;;;-145.06;100.00;96911.00;10432099;28;20021;-80
2023/04/20 22:33:12;;;;;;;0.00;0.00;;;;;;;-145.06;100.00;96882.34;10444295;28;20072;-78